Time;durP1;ratioP1;P1;durP2;ratioP2;P2;SDS_P1;SDS_P2;PMS_P1;PMS_P2;Temp;Humidity;BMP_temperature;BMP_pressure;BME280_temperature;BME280_humidity;BME280_pressure;Samples;Min_cycle;Max_cycle;Signal;HPM_P1;HPM_P2
2021/06/07 00:01:08;;;;;;;26.37;15.70;;;14.90;99.90;;;;;;5045957;28;20503;-60
2021/06/07 00:03:33;;;;;;;25.90;14.60;;;15.00;99.90;;;;;;5043124;28;20210;-60
2021/06/07 00:05:59;;;;;;;24.60;14.43;;;15.00;99.90;;;;;;5046755;28;20527;-60
2021/06/07 00:08:25;;;;;;;26.93;14.57;;;14.90;99.90;;;;;;5047056;28;20171;-59
2021/06/07 00:10:51;;;;;;;21.20;12.73;;;14.90;99.90;;;;;;5046132;28;20542;-60
2021/06/07 00:13:17;;;;;;;18.10;10.70;;;14.90;99.90;;;;;;5030926;28;20172;-61
2021/06/07 00:15:43;;;;;;;17.53;10.40;;;14.90;99.90;;;;;;5049306;28;20440;-60
2021/06/07 00:18:09;;;;;;;17.73;10.60;;;14.90;99.90;;;;;;5039111;28;20255;-60
2021/06/07 00:20:39;;;;;;;16.57;10.17;;;14.90;99.90;;;;;;5030911;28;20252;-60
2021/06/07 00:23:05;;;;;;;14.97;9.77;;;14.90;99.90;;;;;;5041163;28;20198;-60
2021/06/07 00:25:32;;;;;;;14.43;9.50;;;14.90;99.90;;;;;;5048486;28;20441;-59
2021/06/07 00:27:57;;;;;;;11.33;7.70;;;14.90;99.90;;;;;;5030153;28;20890;-60
2021/06/07 00:30:23;;;;;;;12.53;8.80;;;14.90;99.90;;;;;;5041604;28;20476;-60
2021/06/07 00:32:49;;;;;;;12.90;8.03;;;14.90;99.90;;;;;;5026749;28;20184;-59
2021/06/07 00:35:21;;;;;;;10.07;6.37;;;14.90;99.90;;;;;;5037682;28;20195;-59
2021/06/07 00:37:46;;;;;;;11.97;6.90;;;14.90;99.90;;;;;;5045429;28;20481;-60
2021/06/07 00:40:12;;;;;;;12.30;8.50;;;14.90;99.90;;;;;;5047393;28;20496;-61
2021/06/07 00:42:38;;;;;;;10.27;6.77;;;14.90;99.90;;;;;;5050014;28;20179;-60
2021/06/07 00:45:10;;;;;;;8.20;5.40;;;14.90;99.90;;;;;;5048537;28;20433;-59
2021/06/07 00:47:38;;;;;;;8.77;5.77;;;14.90;99.90;;;;;;5031596;28;20202;-58
2021/06/07 00:50:23;;;;;;;7.87;4.40;;;14.90;99.90;;;;;;5045888;28;20448;-61
2021/06/07 00:53:02;;;;;;;6.20;5.03;;;14.90;99.90;;;;;;5033022;28;20483;-60
2021/06/07 00:55:31;;;;;;;7.13;5.03;;;14.90;99.90;;;;;;5047572;28;20462;-59
2021/06/07 00:57:57;;;;;;;7.30;4.50;;;14.90;99.90;;;;;;5048077;28;20471;-60
2021/06/07 01:00:24;;;;;;;7.57;5.77;;;14.90;99.90;;;;;;5041482;28;20465;-61
2021/06/07 01:02:51;;;;;;;8.53;5.87;;;14.90;99.90;;;;;;5044193;28;20880;-59
2021/06/07 01:05:17;;;;;;;9.63;6.40;;;14.90;99.90;;;;;;5049284;28;20420;-60
2021/06/07 01:07:43;;;;;;;9.90;6.33;;;14.90;99.90;;;;;;5021495;28;20454;-59
2021/06/07 01:10:09;;;;;;;10.83;6.70;;;14.90;99.90;;;;;;5043922;28;20244;-59
2021/06/07 01:12:35;;;;;;;10.53;7.20;;;14.90;99.90;;;;;;5030087;28;20518;-60
2021/06/07 01:15:03;;;;;;;11.63;7.10;;;14.90;99.90;;;;;;5042980;28;20459;-59
2021/06/07 01:17:28;;;;;;;14.27;8.47;;;14.90;99.90;;;;;;5048889;28;20661;-60
2021/06/07 01:19:54;;;;;;;11.50;7.80;;;14.90;99.90;;;;;;5049899;28;20429;-59
2021/06/07 01:22:20;;;;;;;12.27;8.97;;;14.90;99.90;;;;;;5043343;28;20179;-61
2021/06/07 01:24:46;;;;;;;13.63;8.03;;;14.90;99.90;;;;;;5046237;28;20179;-61
2021/06/07 01:27:12;;;;;;;15.47;9.70;;;14.90;99.90;;;;;;5040683;28;20264;-60
2021/06/07 01:29:38;;;;;;;11.20;8.00;;;14.90;99.90;;;;;;5040874;28;20195;-60
2021/06/07 01:32:04;;;;;;;14.50;8.77;;;14.90;99.90;;;;;;5035732;28;20171;-59
2021/06/07 01:34:30;;;;;;;14.43;9.90;;;14.90;99.90;;;;;;5047931;28;20434;-61
2021/06/07 01:36:56;;;;;;;12.43;8.60;;;14.90;99.90;;;;;;5045860;28;20438;-60
2021/06/07 01:39:26;;;;;;;14.50;8.90;;;14.90;99.90;;;;;;5039879;28;20195;-59
2021/06/07 01:41:53;;;;;;;15.57;9.23;;;14.90;99.90;;;;;;5047573;28;20600;-60
2021/06/07 01:44:19;;;;;;;14.93;9.20;;;14.90;99.90;;;;;;5048837;28;20587;-59
2021/06/07 01:46:44;;;;;;;15.43;9.23;;;14.90;99.90;;;;;;5042096;28;20544;-60
2021/06/07 01:49:10;;;;;;;13.93;9.63;;;14.90;99.90;;;;;;5048899;28;20254;-59
2021/06/07 01:51:36;;;;;;;16.97;10.37;;;14.90;99.90;;;;;;5049272;28;20163;-59
2021/06/07 01:54:03;;;;;;;16.70;9.63;;;14.90;99.90;;;;;;5042352;28;20534;-60
2021/06/07 01:56:28;;;;;;;13.93;9.67;;;14.90;99.90;;;;;;5044249;28;20874;-59
2021/06/07 01:58:54;;;;;;;13.07;9.43;;;14.90;99.90;;;;;;5021554;28;20409;-61
2021/06/07 02:01:22;;;;;;;13.97;9.67;;;14.90;99.90;;;;;;5046042;28;20206;-59
2021/06/07 02:03:48;;;;;;;13.27;8.53;;;14.90;99.90;;;;;;5045567;28;20175;-59
2021/06/07 02:06:19;;;;;;;15.30;8.10;;;14.90;99.90;;;;;;5047272;28;20446;-60
2021/06/07 02:08:45;;;;;;;10.93;7.93;;;14.90;99.90;;;;;;5039387;28;20418;-59
2021/06/07 02:11:17;;;;;;;12.90;8.27;;;14.90;99.90;;;;;;5040768;28;20438;-60
2021/06/07 02:13:52;;;;;;;13.67;7.57;;;14.90;99.90;;;;;;5035238;28;20425;-59
2021/06/07 02:16:30;;;;;;;13.90;7.43;;;14.90;99.90;;;;;;5029814;28;20429;-59
2021/06/07 02:18:56;;;;;;;10.87;7.97;;;14.90;99.90;;;;;;5044783;28;20416;-60
2021/06/07 02:21:24;;;;;;;10.87;7.47;;;14.90;99.90;;;;;;5043412;28;20425;-60
2021/06/07 02:23:51;;;;;;;9.10;6.57;;;14.90;99.90;;;;;;5025142;28;20444;-58
2021/06/07 02:26:17;;;;;;;12.27;7.77;;;14.90;99.90;;;;;;5050257;28;20452;-60
2021/06/07 02:29:06;;;;;;;10.50;7.77;;;14.90;99.90;;;;;;5043487;28;20430;-59
2021/06/07 02:31:32;;;;;;;11.37;7.43;;;14.90;99.90;;;;;;5038279;28;20934;-60
2021/06/07 02:33:59;;;;;;;10.13;7.03;;;14.90;99.90;;;;;;5041910;28;20423;-59
2021/06/07 02:36:29;;;;;;;11.20;7.93;;;14.90;99.90;;;;;;5039524;28;20462;-60
2021/06/07 02:38:56;;;;;;;13.00;8.50;;;14.90;99.90;;;;;;5025577;28;20425;-59
2021/06/07 02:41:23;;;;;;;9.90;7.27;;;14.80;99.90;;;;;;5047010;28;20433;-62
2021/06/07 02:43:50;;;;;;;14.70;7.40;;;14.90;99.90;;;;;;5046127;28;20428;-61
2021/06/07 02:46:17;;;;;;;13.17;8.17;;;14.80;99.90;;;;;;5045507;28;20499;-60
2021/06/07 02:48:44;;;;;;;12.33;8.47;;;14.90;99.90;;;;;;5040658;28;20429;-61
2021/06/07 02:51:10;;;;;;;11.10;8.00;;;14.80;99.90;;;;;;5044376;28;20402;-60
2021/06/07 02:53:35;;;;;;;14.07;8.20;;;14.80;99.90;;;;;;5020182;28;20982;-59
2021/06/07 02:56:02;;;;;;;10.77;8.03;;;14.80;99.90;;;;;;5045466;28;20418;-60
2021/06/07 02:58:27;;;;;;;14.07;8.70;;;14.80;99.90;;;;;;5044969;28;20175;-59
2021/06/07 03:00:55;;;;;;;13.03;8.20;;;14.80;99.90;;;;;;5068194;23;20489;-54
2021/06/07 03:03:21;;;;;;;13.70;8.20;;;14.80;99.90;;;;;;5045976;28;20160;-53
2021/06/07 03:05:48;;;;;;;12.83;8.73;;;14.80;99.90;;;;;;5017551;28;20834;-52
2021/06/07 03:08:17;;;;;;;11.70;7.53;;;14.80;99.90;;;;;;5043545;28;20465;-54
2021/06/07 03:10:47;;;;;;;8.70;6.57;;;14.80;99.90;;;;;;5040758;28;20457;-54
2021/06/07 03:13:13;;;;;;;12.10;7.03;;;14.70;99.90;;;;;;5034899;28;20465;-54
2021/06/07 03:15:39;;;;;;;13.50;7.50;;;14.70;99.90;;;;;;5032366;28;20535;-55
2021/06/07 03:18:06;;;;;;;10.63;7.50;;;14.80;99.90;;;;;;5030198;28;20466;-54
2021/06/07 03:20:33;;;;;;;11.67;7.70;;;14.70;99.90;;;;;;5029807;28;20275;-55
2021/06/07 03:23:01;;;;;;;14.00;8.10;;;14.70;99.90;;;;;;5028430;28;20495;-54
2021/06/07 03:25:28;;;;;;;10.37;6.97;;;14.80;99.90;;;;;;5026626;28;20480;-53
2021/06/07 03:27:54;;;;;;;11.50;6.90;;;14.70;99.90;;;;;;5049650;28;21222;-53
2021/06/07 03:30:21;;;;;;;10.07;6.77;;;14.70;99.90;;;;;;5044274;28;20843;-54
2021/06/07 03:32:47;;;;;;;10.60;7.43;;;14.70;99.90;;;;;;5047834;28;20452;-53
2021/06/07 03:35:14;;;;;;;10.33;7.23;;;14.70;99.90;;;;;;5031293;28;20910;-54
2021/06/07 03:37:41;;;;;;;17.53;7.97;;;14.70;99.90;;;;;;5044564;28;20682;-54
2021/06/07 03:40:10;;;;;;;11.37;7.80;;;14.70;99.90;;;;;;5047553;28;20540;-54
2021/06/07 03:42:37;;;;;;;12.40;7.53;;;14.70;99.90;;;;;;5050126;28;20506;-54
2021/06/07 03:45:04;;;;;;;13.37;8.03;;;14.70;99.90;;;;;;5042173;28;20828;-54
2021/06/07 03:47:30;;;;;;;13.20;8.10;;;14.70;99.90;;;;;;5045494;28;20559;-53
2021/06/07 03:49:56;;;;;;;13.13;7.70;;;14.70;99.90;;;;;;5027043;28;20473;-54
2021/06/07 03:52:22;;;;;;;12.97;7.97;;;14.70;99.90;;;;;;5034593;28;20446;-54
2021/06/07 03:54:47;;;;;;;14.07;8.37;;;14.60;99.90;;;;;;5057626;28;20166;-54
2021/06/07 03:57:13;;;;;;;12.80;8.17;;;14.60;99.90;;;;;;5023064;28;20183;-55
2021/06/07 03:59:39;;;;;;;13.03;8.37;;;14.70;99.90;;;;;;5035502;28;20713;-54
2021/06/07 04:02:08;;;;;;;13.17;7.73;;;14.70;99.90;;;;;;5031845;28;20718;-54
2021/06/07 04:04:34;;;;;;;15.27;7.90;;;14.60;99.90;;;;;;5043875;28;20255;-55
2021/06/07 04:07:00;;;;;;;14.00;7.90;;;14.60;99.90;;;;;;5039799;28;20825;-51
2021/06/07 04:09:27;;;;;;;13.73;9.00;;;14.70;99.90;;;;;;5038568;28;20183;-53
2021/06/07 04:11:53;;;;;;;12.93;9.00;;;14.60;99.90;;;;;;5039374;28;20503;-50
2021/06/07 04:14:19;;;;;;;14.40;8.67;;;14.70;99.90;;;;;;5027605;28;21045;-52
2021/06/07 04:16:45;;;;;;;17.07;9.17;;;14.60;99.90;;;;;;5038255;28;20519;-54
2021/06/07 04:19:11;;;;;;;19.37;11.83;;;14.70;99.90;;;;;;5047733;28;20178;-53
2021/06/07 04:21:38;;;;;;;15.87;10.97;;;14.60;99.90;;;;;;5036869;28;20223;-54
2021/06/07 04:24:05;;;;;;;20.10;10.10;;;14.70;99.90;;;;;;5038721;28;20676;-58
2021/06/07 04:26:31;;;;;;;13.30;8.50;;;14.70;99.90;;;;;;5031357;28;21147;-52
2021/06/07 04:28:56;;;;;;;17.40;9.20;;;14.60;99.90;;;;;;5038236;28;21084;-53
2021/06/07 04:31:22;;;;;;;13.43;8.03;;;14.70;99.90;;;;;;5036846;28;20198;-55
2021/06/07 04:33:48;;;;;;;11.03;7.30;;;14.60;99.90;;;;;;5041721;28;20651;-52
2021/06/07 04:36:13;;;;;;;15.63;8.50;;;14.70;99.90;;;;;;5035832;28;20671;-52
2021/06/07 04:38:39;;;;;;;12.17;7.70;;;14.70;99.90;;;;;;5027143;28;20179;-51
2021/06/07 04:41:05;;;;;;;9.70;6.67;;;14.70;99.90;;;;;;5026276;28;20202;-51
2021/06/07 04:43:30;;;;;;;11.23;6.30;;;14.70;99.90;;;;;;5034769;28;20182;-51
2021/06/07 04:45:56;;;;;;;9.73;6.47;;;14.70;99.90;;;;;;5028540;28;20252;-54
2021/06/07 04:48:22;;;;;;;8.50;5.53;;;14.60;99.90;;;;;;5031170;28;20593;-52
2021/06/07 04:50:48;;;;;;;8.80;5.97;;;14.60;99.90;;;;;;5009396;28;20434;-53
2021/06/07 04:53:14;;;;;;;8.30;5.90;;;14.60;99.90;;;;;;5028746;28;20258;-54
2021/06/07 04:55:43;;;;;;;9.20;5.90;;;14.70;99.90;;;;;;5025684;28;20580;-53
2021/06/07 04:58:15;;;;;;;8.10;5.43;;;14.70;99.90;;;;;;5028780;28;20199;-53
2021/06/07 05:00:43;;;;;;;7.00;5.20;;;14.70;99.90;;;;;;5032364;28;20469;-53
2021/06/07 05:03:09;;;;;;;8.00;6.00;;;14.70;99.90;;;;;;5035095;28;20838;-53
2021/06/07 05:05:35;;;;;;;6.23;5.20;;;14.70;99.90;;;;;;5044245;28;20433;-53
2021/06/07 05:08:01;;;;;;;8.80;5.17;;;14.70;99.90;;;;;;5041711;28;20215;-53
2021/06/07 05:10:27;;;;;;;5.80;4.50;;;14.70;99.90;;;;;;5039759;28;20464;-54
2021/06/07 05:12:53;;;;;;;6.60;4.73;;;14.80;99.90;;;;;;5047429;28;20414;-54
2021/06/07 05:15:20;;;;;;;8.43;4.87;;;14.70;99.90;;;;;;5037904;28;20670;-53
2021/06/07 05:17:46;;;;;;;8.83;4.53;;;14.70;99.90;;;;;;5045282;28;20167;-55
2021/06/07 05:20:18;;;;;;;7.80;4.90;;;14.80;99.90;;;;;;5044361;28;20511;-53
2021/06/07 05:22:44;;;;;;;5.70;4.40;;;14.80;99.90;;;;;;5045595;28;20232;-53
2021/06/07 05:25:11;;;;;;;4.97;3.80;;;14.80;99.90;;;;;;5045107;28;20501;-53
2021/06/07 05:27:36;;;;;;;5.50;3.90;;;14.80;99.90;;;;;;5043415;28;20378;-51
2021/06/07 05:30:04;;;;;;;6.10;4.27;;;14.80;99.90;;;;;;5042876;28;20897;-53
2021/06/07 05:32:30;;;;;;;5.83;4.53;;;14.90;99.90;;;;;;5036905;28;20188;-55
2021/06/07 05:34:56;;;;;;;6.60;4.77;;;14.90;99.90;;;;;;5046586;28;20449;-51
2021/06/07 05:37:22;;;;;;;6.57;4.70;;;14.90;99.90;;;;;;5044378;28;20422;-53
2021/06/07 05:39:49;;;;;;;7.27;5.10;;;14.90;99.90;;;;;;5042406;28;20179;-54
2021/06/07 05:42:15;;;;;;;7.00;5.00;;;14.90;99.90;;;;;;5046970;28;20430;-53
2021/06/07 05:44:40;;;;;;;7.00;4.67;;;14.90;99.90;;;;;;5045229;28;20444;-52
2021/06/07 05:47:09;;;;;;;6.23;4.50;;;14.90;99.90;;;;;;5031215;28;20507;-53
2021/06/07 05:49:38;;;;;;;5.97;3.97;;;15.00;99.90;;;;;;5044190;28;20188;-53
2021/06/07 05:52:07;;;;;;;3.50;3.20;;;15.00;99.90;;;;;;5043385;28;20456;-52
2021/06/07 05:54:33;;;;;;;6.23;4.40;;;15.00;99.90;;;;;;5024653;28;20433;-53
2021/06/07 05:56:59;;;;;;;5.93;4.03;;;15.00;99.90;;;;;;5048415;28;20456;-54
2021/06/07 05:59:25;;;;;;;5.30;4.17;;;15.10;99.90;;;;;;5050308;28;20445;-56
2021/06/07 06:01:50;;;;;;;4.10;3.50;;;15.10;99.90;;;;;;5041081;28;20961;-54
2021/06/07 06:04:16;;;;;;;4.10;3.03;;;15.10;99.90;;;;;;5033141;28;20221;-53
2021/06/07 06:06:42;;;;;;;7.47;3.13;;;15.00;99.90;;;;;;5040474;28;20218;-54
2021/06/07 06:09:08;;;;;;;4.93;3.90;;;15.00;99.90;;;;;;5033702;28;20207;-52
2021/06/07 06:11:34;;;;;;;4.97;3.60;;;15.00;99.90;;;;;;5039901;28;20715;-54
2021/06/07 06:14:01;;;;;;;4.57;3.30;;;15.00;99.90;;;;;;5042001;28;20523;-52
2021/06/07 06:16:26;;;;;;;5.07;3.90;;;15.00;99.90;;;;;;5022177;28;20512;-52
2021/06/07 06:18:52;;;;;;;4.33;3.23;;;15.00;99.90;;;;;;5042259;28;20520;-53
2021/06/07 06:21:18;;;;;;;7.20;3.23;;;15.00;99.90;;;;;;5035835;28;20210;-51
2021/06/07 06:23:44;;;;;;;6.20;3.27;;;15.00;99.90;;;;;;5035884;28;20382;-53
2021/06/07 06:26:09;;;;;;;6.57;3.50;;;15.00;99.90;;;;;;5034584;28;20180;-53
2021/06/07 06:28:37;;;;;;;7.07;4.23;;;15.00;99.90;;;;;;5028102;28;20182;-52
2021/06/07 06:31:04;;;;;;;8.07;5.03;;;15.00;99.90;;;;;;5036870;28;20448;-51
2021/06/07 06:33:30;;;;;;;7.20;4.10;;;15.00;99.90;;;;;;5040400;28;21193;-53
2021/06/07 06:35:56;;;;;;;7.00;4.90;;;15.00;99.90;;;;;;5019329;28;20449;-52
2021/06/07 06:38:23;;;;;;;7.70;4.60;;;14.90;99.90;;;;;;5041650;28;20956;-53
2021/06/07 06:40:48;;;;;;;8.00;4.93;;;15.00;99.90;;;;;;5037841;28;20517;-54
2021/06/07 06:43:14;;;;;;;8.00;4.90;;;15.00;99.90;;;;;;5020039;28;20449;-54
2021/06/07 06:45:40;;;;;;;5.53;4.30;;;15.00;99.90;;;;;;5043923;28;20175;-56
2021/06/07 06:48:07;;;;;;;6.60;4.77;;;15.00;99.90;;;;;;5042602;28;20463;-55
2021/06/07 06:50:36;;;;;;;6.30;4.80;;;15.00;99.90;;;;;;5035691;28;20597;-54
2021/06/07 06:53:13;;;;;;;6.53;4.93;;;15.00;99.90;;;;;;5044324;28;20509;-54
2021/06/07 06:55:40;;;;;;;8.30;5.40;;;15.00;99.90;;;;;;5041909;28;20448;-54
2021/06/07 06:58:08;;;;;;;11.13;6.47;;;14.90;99.90;;;;;;5047860;28;20437;-54
2021/06/07 07:00:37;;;;;;;8.50;5.27;;;14.90;99.90;;;;;;5040105;28;20481;-53
2021/06/07 07:03:11;;;;;;;6.70;4.90;;;14.90;99.90;;;;;;5039340;28;20427;-53
2021/06/07 07:05:38;;;;;;;6.60;5.00;;;14.90;99.90;;;;;;5042079;28;20451;-54
2021/06/07 07:08:05;;;;;;;9.43;5.33;;;14.90;99.90;;;;;;5041106;28;20564;-54
2021/06/07 07:10:31;;;;;;;9.57;6.23;;;14.90;99.90;;;;;;5040248;28;20456;-55
2021/06/07 07:12:57;;;;;;;10.87;5.83;;;14.90;99.90;;;;;;5043606;28;20665;-54
2021/06/07 07:15:22;;;;;;;8.57;5.10;;;14.90;99.90;;;;;;5041116;28;20533;-55
2021/06/07 07:17:48;;;;;;;8.47;5.20;;;14.90;99.90;;;;;;5029807;28;20258;-55
2021/06/07 07:20:14;;;;;;;8.30;5.50;;;14.90;99.90;;;;;;5044165;28;20187;-55
2021/06/07 07:22:40;;;;;;;7.80;4.90;;;14.90;99.90;;;;;;5050077;28;20199;-52
2021/06/07 07:25:07;;;;;;;12.10;5.17;;;14.90;99.90;;;;;;5040176;28;20432;-55
2021/06/07 07:27:36;;;;;;;10.27;4.50;;;14.90;99.90;;;;;;5041849;28;20457;-54
2021/06/07 07:30:09;;;;;;;7.90;4.60;;;15.00;99.90;;;;;;5047158;28;20430;-54
2021/06/07 07:32:36;;;;;;;8.37;4.60;;;15.00;99.90;;;;;;5042558;28;20576;-55
2021/06/07 07:35:02;;;;;;;6.47;3.90;;;15.00;99.90;;;;;;5037585;28;20447;-53
2021/06/07 07:37:28;;;;;;;6.30;3.73;;;15.00;99.90;;;;;;5041226;28;21058;-54
2021/06/07 07:39:53;;;;;;;6.07;3.50;;;15.00;99.90;;;;;;5042371;28;20715;-53
2021/06/07 07:42:19;;;;;;;4.83;3.20;;;15.10;99.90;;;;;;5039605;28;20196;-55
2021/06/07 07:44:45;;;;;;;3.70;3.10;;;15.10;99.90;;;;;;5043698;28;20224;-55
2021/06/07 07:47:11;;;;;;;3.77;2.80;;;15.10;99.90;;;;;;5029885;28;20206;-53
2021/06/07 07:49:37;;;;;;;2.60;2.40;;;15.10;99.90;;;;;;5028490;28;20434;-54
2021/06/07 07:52:05;;;;;;;3.90;2.67;;;15.10;99.90;;;;;;5041034;28;20206;-54
2021/06/07 07:54:31;;;;;;;2.80;2.50;;;15.10;99.90;;;;;;5013675;28;20418;-54
2021/06/07 07:56:57;;;;;;;4.00;2.80;;;15.10;99.90;;;;;;5035395;28;20441;-52
2021/06/07 07:59:23;;;;;;;6.50;3.93;;;15.20;99.90;;;;;;5029015;28;20499;-55
2021/06/07 08:01:49;;;;;;;5.70;4.90;;;15.20;99.90;;;;;;5031889;28;20469;-53
2021/06/07 08:04:15;;;;;;;4.37;3.90;;;15.30;99.90;;;;;;5032326;28;20267;-54
2021/06/07 08:06:43;;;;;;;6.97;4.43;;;15.30;99.90;;;;;;5042731;28;20210;-54
2021/06/07 08:09:09;;;;;;;4.00;3.00;;;15.40;99.90;;;;;;5036496;28;20464;-54
2021/06/07 08:11:35;;;;;;;3.17;2.50;;;15.50;99.90;;;;;;5032487;28;20545;-54
2021/06/07 08:14:00;;;;;;;2.00;1.90;;;15.60;99.90;;;;;;5032839;28;20210;-55
2021/06/07 08:16:26;;;;;;;5.33;1.60;;;15.70;99.90;;;;;;5031906;28;20186;-54
2021/06/07 08:18:52;;;;;;;3.00;1.47;;;15.70;99.90;;;;;;5038083;28;20180;-55
2021/06/07 08:21:18;;;;;;;2.00;1.60;;;15.70;99.90;;;;;;5033921;28;20204;-55
2021/06/07 08:23:44;;;;;;;1.60;1.50;;;15.60;99.90;;;;;;5033856;28;20439;-54
2021/06/07 08:26:09;;;;;;;2.80;1.77;;;15.60;99.90;;;;;;5034522;28;20663;-54
2021/06/07 08:28:35;;;;;;;3.90;2.00;;;15.60;99.90;;;;;;5039623;28;20238;-55
2021/06/07 08:31:01;;;;;;;3.50;1.97;;;15.60;99.90;;;;;;5039585;28;20222;-55
2021/06/07 08:33:26;;;;;;;2.00;1.87;;;15.60;99.90;;;;;;5025795;28;20263;-54
2021/06/07 08:35:52;;;;;;;2.33;1.67;;;15.70;99.90;;;;;;5040469;28;20412;-53
2021/06/07 08:38:18;;;;;;;2.43;2.23;;;15.70;99.90;;;;;;5032738;28;21894;-57
2021/06/07 08:40:46;;;;;;;1.63;1.53;;;15.70;99.90;;;;;;5035132;28;20210;-54
2021/06/07 08:43:13;;;;;;;1.50;1.40;;;15.80;99.90;;;;;;5035831;28;21080;-54
2021/06/07 08:45:39;;;;;;;2.30;1.67;;;15.80;99.90;;;;;;5032991;28;20426;-52
2021/06/07 08:48:05;;;;;;;1.33;1.10;;;15.90;99.90;;;;;;5011150;28;20545;-56
2021/06/07 08:50:32;;;;;;;3.83;3.03;;;16.00;99.90;;;;;;5011635;28;20211;-54
2021/06/07 08:52:58;;;;;;;3.03;2.60;;;16.10;99.90;;;;;;5033828;28;20499;-53
2021/06/07 08:55:28;;;;;;;4.63;1.50;;;16.20;99.90;;;;;;5033269;28;20713;-53
2021/06/07 08:57:55;;;;;;;2.40;1.30;;;16.40;99.90;;;;;;5035733;28;20250;-53
2021/06/07 09:00:24;;;;;;;2.63;0.90;;;16.50;99.90;;;;;;5029877;28;20578;-53
2021/06/07 09:02:57;;;;;;;1.00;1.00;;;16.50;99.90;;;;;;5069868;22;20540;-58
2021/06/07 09:05:23;;;;;;;0.90;0.90;;;16.60;99.90;;;;;;5057240;28;20444;-58
2021/06/07 09:07:56;;;;;;;1.73;0.90;;;16.70;99.90;;;;;;5052699;28;20452;-60
2021/06/07 09:10:23;;;;;;;1.43;0.90;;;16.70;99.90;;;;;;5055620;28;20406;-58
2021/06/07 09:12:55;;;;;;;5.47;0.90;;;16.70;99.90;;;;;;5043962;28;20448;-59
2021/06/07 09:15:28;;;;;;;1.30;1.00;;;16.70;99.90;;;;;;5038931;28;20452;-59
2021/06/07 09:17:54;;;;;;;1.13;1.07;;;16.70;99.90;;;;;;5035194;28;20874;-59
2021/06/07 09:20:21;;;;;;;1.40;1.30;;;16.70;99.90;;;;;;5031695;28;21367;-59
2021/06/07 09:23:13;;;;;;;2.63;1.37;;;16.70;99.90;;;;;;5039632;28;20457;-58
2021/06/07 09:25:41;;;;;;;2.53;1.37;;;16.60;99.90;;;;;;5039805;28;20437;-59
2021/06/07 09:28:07;;;;;;;1.27;1.17;;;16.60;99.90;;;;;;5040068;28;20487;-60
2021/06/07 09:30:32;;;;;;;1.20;1.10;;;16.60;99.90;;;;;;5023248;28;20977;-58
2021/06/07 09:33:18;;;;;;;2.40;1.23;;;16.50;99.90;;;;;;5023269;28;20199;-59
2021/06/07 09:35:46;;;;;;;1.30;1.20;;;16.50;99.90;;;;;;5029471;28;20167;-60
2021/06/07 09:38:12;;;;;;;1.37;1.27;;;16.40;99.90;;;;;;5056556;28;20461;-60
2021/06/07 09:40:38;;;;;;;1.50;1.40;;;16.30;99.90;;;;;;5058683;28;20526;-65
2021/06/07 09:43:05;;;;;;;2.50;1.40;;;16.30;99.90;;;;;;5044738;28;20523;-61
2021/06/07 09:45:43;;;;;;;1.57;1.47;;;16.40;99.90;;;;;;5057247;28;20181;-61
2021/06/07 09:48:15;;;;;;;6.17;2.00;;;16.40;99.90;;;;;;5057580;28;20457;-60
2021/06/07 09:51:07;;;;;;;3.10;1.70;;;16.50;99.90;;;;;;5057125;28;20997;-63
2021/06/07 09:53:52;;;;;;;1.60;1.50;;;16.50;99.90;;;;;;5056284;28;20441;-62
2021/06/07 09:56:19;;;;;;;3.33;1.53;;;16.50;99.90;;;;;;5048635;28;20849;-59
2021/06/07 09:58:47;;;;;;;1.93;1.60;;;16.60;99.90;;;;;;5039971;28;20517;-59
2021/06/07 10:01:15;;;;;;;2.30;2.10;;;16.60;99.90;;;;;;5040048;28;20462;-59
2021/06/07 10:03:44;;;;;;;4.73;2.10;;;16.70;99.90;;;;;;5038427;28;20468;-61
2021/06/07 10:06:26;;;;;;;2.10;1.90;;;16.80;99.90;;;;;;5035809;28;20518;-59
2021/06/07 10:09:13;;;;;;;2.10;1.70;;;17.00;99.90;;;;;;5039482;28;21160;-60
2021/06/07 10:11:41;;;;;;;1.97;1.87;;;17.20;99.90;;;;;;5017838;28;21618;-61
2021/06/07 10:14:19;;;;;;;1.90;1.80;;;17.50;99.90;;;;;;5042820;28;20444;-61
2021/06/07 10:17:00;;;;;;;2.23;2.10;;;17.70;99.90;;;;;;5023387;28;20447;-60
2021/06/07 10:22:08;;;;;;;1.80;1.70;;;18.10;99.90;;;;;;5034895;28;20449;-60
2021/06/07 10:24:33;;;;;;;2.80;2.07;;;18.20;99.90;;;;;;5039176;28;20945;-59
2021/06/07 10:27:00;;;;;;;2.30;2.10;;;18.30;99.90;;;;;;5042298;28;20523;-60
2021/06/07 10:29:34;;;;;;;3.10;2.40;;;18.30;99.90;;;;;;5039734;28;20171;-59
2021/06/07 10:32:07;;;;;;;2.40;2.20;;;18.20;99.90;;;;;;5043738;28;20452;-60
2021/06/07 10:35:06;;;;;;;6.63;2.27;;;18.10;99.90;;;;;;5043508;28;20448;-59
2021/06/07 10:37:32;;;;;;;4.70;2.90;;;18.10;99.90;;;;;;5004748;28;20484;-60
2021/06/07 10:40:24;;;;;;;2.57;2.37;;;18.20;99.90;;;;;;5021237;28;20937;-59
2021/06/07 10:42:55;;;;;;;3.47;3.17;;;18.40;99.90;;;;;;5040399;28;20455;-61
2021/06/07 10:45:23;;;;;;;3.40;3.10;;;18.60;99.90;;;;;;5040753;28;21529;-58
2021/06/07 10:47:49;;;;;;;3.60;3.00;;;18.70;99.90;;;;;;5040141;28;20465;-57
2021/06/07 10:50:20;;;;;;;4.67;3.43;;;18.90;99.90;;;;;;5023602;28;20499;-58
2021/06/07 10:52:59;;;;;;;3.90;3.50;;;18.90;99.90;;;;;;5040362;28;20552;-59
2021/06/07 10:55:43;;;;;;;4.03;3.27;;;18.80;99.90;;;;;;5044266;28;20754;-59
2021/06/07 10:58:13;;;;;;;3.07;2.77;;;18.80;99.90;;;;;;5042323;28;20441;-59
2021/06/07 11:00:48;;;;;;;3.90;3.60;;;18.70;99.90;;;;;;5023954;28;20445;-61
2021/06/07 11:03:16;;;;;;;5.90;4.10;;;18.60;99.90;;;;;;5035833;28;20457;-59
2021/06/07 11:05:43;;;;;;;4.20;3.70;;;18.60;99.90;;;;;;5033096;28;20430;-57
2021/06/07 11:08:25;;;;;;;5.73;4.50;;;18.50;99.90;;;;;;5031079;28;20842;-59
2021/06/07 11:11:16;;;;;;;5.20;4.67;;;18.50;99.90;;;;;;5030208;28;20422;-59
2021/06/07 11:13:50;;;;;;;6.57;4.93;;;18.40;99.90;;;;;;5032860;28;20437;-59
2021/06/07 11:16:32;;;;;;;7.80;5.27;;;18.30;99.90;;;;;;5025933;28;20438;-59
2021/06/07 11:19:00;;;;;;;6.10;5.47;;;18.30;99.90;;;;;;5031785;28;20532;-60
2021/06/07 11:21:34;;;;;;;5.03;4.53;;;18.20;99.90;;;;;;5027140;28;20446;-57
2021/06/07 11:24:01;;;;;;;6.63;4.73;;;18.20;99.90;;;;;;5031958;28;20433;-58
2021/06/07 11:26:41;;;;;;;5.87;4.60;;;18.10;99.90;;;;;;5036931;28;20436;-59
2021/06/07 11:29:08;;;;;;;5.60;4.47;;;18.10;99.90;;;;;;5037594;28;20425;-58
2021/06/07 11:31:34;;;;;;;10.23;4.53;;;17.90;99.90;;;;;;5035642;28;20457;-58
2021/06/07 11:34:11;;;;;;;5.47;4.80;;;17.80;99.90;;;;;;5026232;28;20959;-59
2021/06/07 11:36:58;;;;;;;5.53;4.57;;;17.70;99.90;;;;;;5015228;28;20194;-58
2021/06/07 11:39:30;;;;;;;7.60;5.43;;;17.60;99.90;;;;;;5035778;28;20880;-59
2021/06/07 11:41:59;;;;;;;8.27;5.17;;;17.50;99.90;;;;;;5035816;28;20461;-58
2021/06/07 11:44:45;;;;;;;5.97;5.20;;;17.50;99.90;;;;;;5039499;28;20441;-58
2021/06/07 11:47:19;;;;;;;6.40;5.43;;;17.40;99.90;;;;;;5028167;28;20527;-61
2021/06/07 11:49:57;;;;;;;6.43;5.27;;;17.30;99.90;;;;;;5039055;28;20456;-60
2021/06/07 11:52:51;;;;;;;6.43;5.00;;;17.30;99.90;;;;;;5020919;28;21043;-61
2021/06/07 11:55:28;;;;;;;7.60;5.33;;;17.20;99.90;;;;;;5034811;28;20442;-60
2021/06/07 11:58:07;;;;;;;7.97;5.60;;;17.20;99.90;;;;;;5035447;28;20433;-61
2021/06/07 12:00:35;;;;;;;10.00;5.90;;;17.20;99.90;;;;;;5015724;28;20442;-62
2021/06/07 12:03:09;;;;;;;10.37;7.57;;;17.20;99.90;;;;;;5034384;28;20465;-60
2021/06/07 12:05:35;;;;;;;10.20;6.93;;;17.30;99.90;;;;;;5021763;28;21189;-60
2021/06/07 12:08:12;;;;;;;9.27;6.47;;;17.30;99.90;;;;;;5037122;28;20457;-60
2021/06/07 12:10:39;;;;;;;7.23;6.33;;;17.40;99.90;;;;;;5037397;28;20179;-62
2021/06/07 12:13:23;;;;;;;6.57;5.87;;;17.50;99.90;;;;;;5036426;28;21061;-60
2021/06/07 12:16:01;;;;;;;11.63;7.87;;;17.60;99.90;;;;;;5038124;28;20847;-60
2021/06/07 12:18:46;;;;;;;7.83;7.03;;;17.70;99.90;;;;;;5040558;28;20426;-60
2021/06/07 12:21:25;;;;;;;10.23;7.17;;;17.90;99.90;;;;;;5034572;28;20521;-61
2021/06/07 12:23:57;;;;;;;6.93;5.63;;;18.10;99.90;;;;;;5033005;28;20421;-59
2021/06/07 12:29:26;;;;;;;8.10;6.67;;;18.30;99.90;;;;;;5034459;28;21553;-60
2021/06/07 12:32:04;;;;;;;4.77;4.37;;;18.40;99.90;;;;;;5027986;28;20453;-62
2021/06/07 12:34:30;;;;;;;5.50;4.10;;;18.50;99.90;;;;;;5037638;28;20437;-61
2021/06/07 12:36:56;;;;;;;4.00;3.70;;;18.50;99.90;;;;;;5020202;28;20437;-60
2021/06/07 12:39:22;;;;;;;6.90;4.93;;;18.60;99.90;;;;;;5034376;28;20186;-61
2021/06/07 12:41:47;;;;;;;4.67;4.00;;;18.60;99.90;;;;;;5032723;28;20195;-63
2021/06/07 12:44:13;;;;;;;6.47;4.60;;;18.60;99.90;;;;;;5030194;28;20270;-60
2021/06/07 12:46:54;;;;;;;4.47;4.07;;;18.60;99.90;;;;;;5035111;28;20234;-63
2021/06/07 12:49:24;;;;;;;7.00;4.30;;;18.70;99.90;;;;;;5037368;28;20293;-61
2021/06/07 12:52:05;;;;;;;5.60;5.00;;;18.70;99.90;;;;;;5031864;28;20509;-61
2021/06/07 12:54:32;;;;;;;4.90;4.50;;;18.80;99.90;;;;;;5038499;28;20430;-60
2021/06/07 12:56:59;;;;;;;7.90;5.40;;;18.90;99.90;;;;;;5034835;28;20490;-60